createdAt,value
2018-04-14T00:02:23.226Z,78.00
2018-04-14T00:04:52.245Z,78.40
2018-04-14T00:07:20.488Z,77.60
2018-04-14T00:09:49.500Z,77.70
2018-04-14T00:12:17.784Z,77.60
2018-04-14T00:14:46.019Z,75.40
2018-04-14T00:17:14.298Z,75.80
2018-04-14T00:19:42.578Z,75.90
2018-04-14T00:22:10.847Z,73.20
2018-04-14T00:24:39.108Z,72.40
2018-04-14T00:27:07.355Z,72.30
2018-04-14T00:29:35.650Z,73.90
2018-04-14T00:32:03.931Z,73.00
2018-04-14T00:34:32.206Z,74.00
2018-04-14T00:37:00.494Z,76.00
2018-04-14T00:39:28.769Z,74.90
2018-04-14T00:41:57.020Z,75.10
2018-04-14T00:44:25.280Z,74.90
2018-04-14T00:46:54.315Z,74.70
2018-04-14T00:49:22.564Z,74.70
2018-04-14T00:51:50.808Z,75.40
2018-04-14T00:54:19.816Z,75.00
2018-04-14T00:56:48.826Z,76.60
2018-04-14T00:59:17.097Z,76.60
2018-04-14T01:01:45.378Z,76.40
2018-04-14T01:04:13.660Z,76.50
2018-04-14T01:06:41.961Z,77.30
2018-04-14T01:09:10.678Z,77.00
2018-04-14T01:11:39.874Z,77.20
2018-04-14T01:14:08.122Z,76.60
2018-04-14T01:16:36.367Z,76.20
2018-04-14T01:19:04.659Z,75.60
2018-04-14T01:21:32.928Z,76.60
2018-04-14T01:24:01.174Z,76.00
2018-04-14T01:26:30.180Z,75.60
2018-04-14T01:28:59.230Z,75.30
2018-04-14T01:31:27.502Z,75.10
2018-04-14T01:33:55.751Z,76.30
2018-04-14T01:36:24.040Z,75.30
2018-04-14T01:38:52.575Z,75.30
2018-04-14T01:41:20.848Z,74.20
2018-04-14T01:43:49.137Z,74.80
2018-04-14T01:46:18.146Z,75.30
2018-04-14T01:48:46.442Z,75.10
2018-04-14T01:51:14.711Z,74.80
2018-04-14T01:53:42.983Z,75.40
2018-04-14T01:56:11.262Z,74.60
2018-04-14T01:58:39.506Z,75.10
2018-04-14T02:01:07.747Z,73.60
2018-04-14T02:03:36.063Z,72.10
2018-04-14T02:06:04.315Z,72.50
2018-04-14T02:08:32.565Z,70.50
2018-04-14T02:11:01.011Z,71.40
2018-04-14T02:13:30.069Z,72.90
2018-04-14T02:15:58.368Z,72.80
2018-04-14T02:18:26.591Z,72.30
2018-04-14T02:20:54.857Z,72.40
2018-04-14T02:23:23.130Z,73.30
2018-04-14T02:25:51.384Z,74.00
2018-04-14T02:28:20.386Z,73.00
2018-04-14T02:30:49.418Z,73.60
2018-04-14T02:33:17.647Z,73.70
2018-04-14T02:35:46.695Z,73.60
2018-04-14T02:38:14.977Z,73.70
2018-04-14T02:40:43.207Z,75.00
2018-04-14T02:43:12.217Z,76.20
2018-04-14T02:45:40.504Z,76.20
2018-04-14T02:48:08.795Z,76.90
2018-04-14T02:50:37.031Z,76.30
2018-04-14T02:53:06.204Z,76.70
2018-04-14T02:55:34.451Z,76.50
2018-04-14T02:58:02.742Z,73.90
2018-04-14T03:00:31.007Z,76.50
2018-04-14T03:02:59.260Z,75.50
2018-04-14T03:05:27.499Z,76.00
2018-04-14T03:07:56.609Z,76.60
2018-04-14T03:10:25.609Z,76.10
2018-04-14T03:12:54.615Z,75.80
2018-04-14T03:15:22.852Z,75.80
2018-04-14T03:17:51.196Z,76.30
2018-04-14T03:20:19.474Z,74.50
2018-04-14T03:22:47.705Z,73.50
2018-04-14T03:25:16.756Z,74.60
2018-04-14T03:27:44.996Z,74.50
2018-04-14T03:30:13.297Z,73.40
2018-04-14T03:32:41.556Z,74.60
2018-04-14T03:35:09.854Z,72.50
2018-04-14T03:37:38.079Z,71.70
2018-04-14T03:40:07.139Z,72.20
2018-04-14T03:42:35.408Z,72.40
2018-04-14T03:45:03.673Z,72.30
2018-04-14T03:47:31.947Z,71.30
2018-04-14T03:50:00.684Z,69.60
2018-04-14T03:52:28.971Z,73.00
2018-04-14T03:54:57.971Z,74.20
2018-04-14T03:57:26.989Z,73.10
2018-04-14T03:59:55.268Z,73.90
2018-04-14T04:02:23.516Z,73.80
2018-04-14T04:04:52.527Z,70.00
2018-04-14T04:07:21.641Z,69.90
2018-04-14T04:09:49.926Z,70.50
2018-04-14T04:12:18.316Z,72.90
2018-04-14T04:14:46.564Z,73.20
2018-04-14T04:17:14.841Z,71.50
2018-04-14T04:19:54.928Z,71.90
2018-04-14T04:22:35.108Z,70.90
2018-04-14T04:25:15.078Z,70.70
2018-04-14T04:27:44.120Z,69.60
2018-04-14T04:30:13.363Z,69.60
2018-04-14T04:32:41.596Z,69.80
2018-04-14T04:35:09.844Z,69.30
2018-04-14T04:37:38.080Z,70.70
2018-04-14T04:40:06.377Z,69.90
2018-04-14T04:42:35.417Z,69.30
2018-04-14T04:45:03.659Z,69.30
2018-04-14T04:47:31.895Z,69.20
2018-04-14T04:50:00.188Z,68.80
2018-04-14T04:52:28.463Z,68.70
2018-04-14T04:54:56.715Z,68.80
2018-04-14T04:57:24.943Z,69.00
2018-04-14T04:59:53.219Z,68.30
2018-04-14T05:02:21.504Z,69.40
2018-04-14T05:04:50.546Z,69.00
2018-04-14T05:07:18.849Z,69.00
2018-04-14T05:09:47.083Z,68.90
2018-04-14T05:12:15.376Z,69.80
2018-04-14T05:14:43.608Z,68.80
2018-04-14T05:17:11.903Z,69.50
2018-04-14T05:19:40.182Z,70.60
2018-04-14T05:22:08.431Z,69.90
2018-04-14T05:24:36.723Z,71.50
2018-04-14T05:27:04.958Z,68.80
2018-04-14T05:29:33.210Z,69.40
2018-04-14T05:32:01.501Z,69.50
2018-04-14T05:34:29.723Z,69.30
2018-04-14T05:36:57.970Z,70.00
2018-04-14T05:39:27.020Z,69.00
2018-04-14T05:41:55.368Z,69.00
2018-04-14T05:44:23.617Z,70.50
2018-04-14T05:46:51.856Z,69.10
2018-04-14T05:49:20.112Z,69.60
2018-04-14T05:51:48.350Z,70.10
2018-04-14T05:54:17.520Z,71.80
2018-04-14T05:56:45.811Z,73.20
2018-04-14T05:59:14.037Z,74.60
2018-04-14T06:01:42.276Z,76.20
2018-04-14T06:04:11.356Z,75.00
2018-04-14T06:06:39.580Z,74.90
2018-04-14T06:09:07.899Z,74.90
2018-04-14T06:11:36.269Z,76.40
2018-04-14T06:14:04.507Z,75.50
2018-04-14T06:16:32.794Z,78.00
2018-04-14T06:19:01.085Z,79.10
2018-04-14T06:21:29.371Z,77.80
2018-04-14T06:23:57.661Z,76.20
2018-04-14T06:26:25.923Z,74.30
2018-04-14T06:28:55.637Z,73.50
2018-04-14T06:31:24.980Z,74.30
2018-04-14T06:33:53.285Z,74.30
2018-04-14T06:36:22.313Z,73.10
2018-04-14T06:38:50.597Z,72.30
2018-04-14T06:41:18.873Z,72.60
2018-04-14T06:43:47.158Z,72.70
2018-04-14T06:46:15.412Z,70.70
2018-04-14T06:48:43.669Z,70.30
2018-04-14T06:51:11.920Z,72.00
2018-04-14T06:53:40.971Z,71.60
2018-04-14T06:56:09.211Z,71.50
2018-04-14T06:58:37.497Z,71.50
2018-04-14T07:01:05.764Z,70.70
2018-04-14T07:03:34.801Z,71.40
2018-04-14T07:06:03.055Z,71.20
2018-04-14T07:08:31.298Z,71.40
2018-04-14T07:11:00.361Z,71.70
2018-04-14T07:13:29.383Z,71.70
2018-04-14T07:15:58.397Z,71.70
2018-04-14T07:18:26.630Z,71.60
2018-04-14T07:20:54.948Z,70.30
2018-04-14T07:23:23.995Z,70.80
2018-04-14T07:25:52.240Z,70.80
2018-04-14T07:28:20.516Z,71.10
2018-04-14T07:30:48.766Z,71.00
2018-04-14T07:33:17.786Z,70.30
2018-04-14T07:35:46.023Z,70.20
2018-04-14T07:38:15.049Z,69.60
2018-04-14T07:40:43.337Z,69.60
2018-04-14T07:43:12.220Z,69.50
2018-04-14T07:45:40.490Z,69.20
2018-04-14T07:48:08.752Z,69.30
2018-04-14T07:50:37.760Z,68.40
2018-04-14T07:53:06.012Z,68.40
2018-04-14T07:55:35.029Z,68.20
2018-04-14T07:58:03.397Z,68.10
2018-04-14T08:00:32.411Z,65.80
2018-04-14T08:03:00.682Z,65.80
2018-04-14T08:05:28.978Z,65.70
2018-04-14T08:07:57.268Z,66.60
2018-04-14T08:10:25.516Z,67.00
2018-04-14T08:12:53.807Z,67.20
2018-04-14T08:15:22.071Z,67.20
2018-04-14T08:17:50.326Z,66.40
2018-04-14T08:20:19.390Z,64.70
2018-04-14T08:22:47.633Z,64.70
2018-04-14T08:25:15.906Z,64.80
2018-04-14T08:27:44.167Z,65.40
2018-04-14T08:30:13.218Z,64.70
2018-04-14T08:32:41.525Z,64.70
2018-04-14T08:35:10.674Z,63.70
2018-04-14T08:37:38.974Z,63.70
2018-04-14T08:40:07.206Z,65.30
2018-04-14T08:42:35.535Z,64.80
2018-04-14T08:45:03.818Z,63.50
2018-04-14T08:47:32.093Z,64.20
2018-04-14T08:50:01.864Z,63.20
2018-04-14T08:52:30.119Z,63.20
2018-04-14T08:54:58.425Z,62.20
2018-04-14T08:57:26.705Z,59.20
2018-04-14T08:59:54.946Z,61.40
2018-04-14T09:02:23.258Z,62.00
2018-04-14T09:04:51.570Z,60.50
2018-04-14T09:07:19.849Z,60.50
2018-04-14T09:09:49.607Z,62.60
2018-04-14T09:12:17.903Z,62.60
2018-04-14T09:14:46.198Z,61.90
2018-04-14T09:17:14.442Z,62.20
2018-04-14T09:19:42.706Z,62.30
2018-04-14T09:22:10.960Z,61.00
2018-04-14T09:24:39.994Z,62.60
2018-04-14T09:27:08.251Z,62.50
2018-04-14T09:29:36.558Z,61.80
2018-04-14T09:32:04.841Z,59.40
2018-04-14T09:34:33.093Z,61.50
2018-04-14T09:37:01.463Z,61.70
2018-04-14T09:39:29.729Z,61.30
2018-04-14T09:41:58.830Z,57.10
2018-04-14T09:44:27.860Z,60.00
2018-04-14T09:46:56.115Z,60.00
2018-04-14T09:49:24.399Z,58.80
2018-04-14T09:51:52.706Z,59.30
2018-04-14T09:54:20.990Z,55.90
2018-04-14T09:56:49.236Z,57.10
2018-04-14T09:59:17.487Z,58.30
2018-04-14T10:01:51.663Z,57.30
2018-04-14T10:04:19.916Z,58.20
2018-04-14T10:06:48.187Z,58.60
2018-04-14T10:09:16.485Z,59.50
2018-04-14T10:11:44.735Z,57.40
2018-04-14T10:14:13.040Z,56.70
2018-04-14T10:16:41.297Z,55.90
2018-04-14T10:19:09.587Z,57.00
2018-04-14T10:21:37.985Z,57.10
2018-04-14T10:24:07.814Z,54.70
2018-04-14T10:26:36.014Z,54.60
2018-04-14T10:29:04.332Z,55.70
2018-04-14T10:31:32.601Z,57.50
2018-04-14T10:34:00.856Z,55.70
2018-04-14T10:36:29.104Z,56.10
2018-04-14T10:38:58.187Z,57.00
2018-04-14T10:41:27.946Z,54.10
2018-04-14T10:43:56.249Z,54.10
2018-04-14T10:46:24.450Z,52.80
2018-04-14T10:48:52.706Z,54.50
2018-04-14T10:51:20.960Z,54.90
2018-04-14T10:53:49.298Z,55.40
2018-04-14T10:56:18.322Z,49.80
2018-04-14T10:58:46.601Z,49.80
2018-04-14T11:01:14.901Z,48.70
2018-04-14T11:03:43.153Z,48.60
2018-04-14T11:06:11.417Z,52.10
2018-04-14T11:08:39.711Z,48.50
2018-04-14T11:11:08.007Z,50.90
2018-04-14T11:13:36.287Z,49.40
2018-04-14T11:16:04.579Z,52.40
2018-04-14T11:18:32.823Z,50.40
2018-04-14T11:21:01.088Z,51.30
2018-04-14T11:23:29.390Z,50.40
2018-04-14T11:25:57.668Z,50.30
2018-04-14T11:28:25.945Z,49.40
2018-04-14T11:30:54.188Z,48.50
2018-04-14T11:33:23.205Z,47.30
2018-04-14T11:35:51.485Z,47.30
2018-04-14T11:38:19.744Z,49.00
2018-04-14T11:40:47.987Z,45.10
2018-04-14T11:43:17.065Z,48.00
2018-04-14T11:45:45.299Z,47.60
2018-04-14T11:48:13.588Z,47.10
2018-04-14T11:50:41.846Z,45.00
2018-04-14T11:53:10.157Z,46.30
2018-04-14T11:55:38.447Z,44.50
2018-04-14T11:58:06.749Z,43.00
2018-04-14T12:00:35.010Z,42.00
2018-04-14T12:03:03.301Z,40.40
2018-04-14T12:05:31.601Z,45.00
2018-04-14T12:08:00.667Z,44.60
2018-04-14T12:10:28.912Z,44.60
2018-04-14T12:12:57.170Z,41.70
2018-04-14T12:15:25.468Z,42.20
2018-04-14T12:17:53.752Z,40.10
2018-04-14T12:20:22.043Z,42.70
2018-04-14T12:22:50.291Z,45.20
2018-04-14T12:25:18.559Z,45.40
2018-04-14T12:27:46.858Z,43.50
2018-04-14T12:30:15.153Z,42.30
2018-04-14T12:32:43.400Z,41.90
2018-04-14T12:35:11.692Z,42.60
2018-04-14T12:37:39.947Z,42.50
2018-04-14T12:40:08.220Z,42.70
2018-04-14T12:42:36.475Z,42.10
2018-04-14T12:45:05.611Z,45.20
2018-04-14T12:47:33.854Z,45.30
2018-04-14T12:50:02.111Z,44.50
2018-04-14T12:52:31.141Z,43.10
2018-04-14T12:54:59.426Z,43.00
2018-04-14T12:57:27.698Z,42.50
2018-04-14T12:59:56.000Z,41.10
2018-04-14T13:02:24.300Z,40.40
2018-04-14T13:04:52.552Z,42.70
2018-04-14T13:07:20.842Z,44.30
2018-04-14T13:09:49.135Z,42.20
2018-04-14T13:12:17.421Z,41.40
2018-04-14T13:14:45.664Z,42.90
2018-04-14T13:17:13.946Z,42.30
2018-04-14T13:19:42.215Z,40.30
2018-04-14T13:22:10.523Z,41.10
2018-04-14T13:24:38.833Z,43.20
2018-04-14T13:27:07.109Z,40.30
2018-04-14T13:29:35.358Z,41.00
2018-04-14T13:32:04.378Z,41.70
2018-04-14T13:34:32.678Z,41.80
2018-04-14T13:37:00.916Z,42.30
2018-04-14T13:39:29.964Z,41.70
2018-04-14T13:41:58.229Z,41.70
2018-04-14T13:44:26.513Z,40.80
2018-04-14T13:46:54.784Z,41.20
2018-04-14T13:49:23.032Z,42.20
2018-04-14T13:51:51.329Z,42.30
2018-04-14T13:54:19.615Z,43.30
2018-04-14T13:56:47.916Z,42.60
2018-04-14T13:59:16.202Z,42.60
2018-04-14T14:01:44.491Z,43.00
2018-04-14T14:04:12.745Z,40.90
2018-04-14T14:06:41.048Z,39.90
2018-04-14T14:09:10.418Z,42.40
2018-04-14T14:11:38.714Z,42.20
2018-04-14T14:14:07.062Z,40.60
2018-04-14T14:16:35.317Z,42.10
2018-04-14T14:19:03.719Z,42.60
2018-04-14T14:21:32.006Z,43.80
2018-04-14T14:24:00.344Z,42.90
2018-04-14T14:26:28.561Z,42.80
2018-04-14T14:28:56.881Z,41.70
2018-04-14T14:31:26.032Z,43.40
2018-04-14T14:33:54.296Z,42.90
2018-04-14T14:36:22.583Z,40.40
2018-04-14T14:38:50.900Z,38.90
2018-04-14T14:41:19.177Z,41.90
2018-04-14T14:43:47.496Z,43.10
2018-04-14T14:46:15.796Z,42.40
2018-04-14T14:48:44.058Z,42.00
2018-04-14T14:51:12.355Z,41.00
2018-04-14T14:53:40.599Z,41.00
2018-04-14T14:56:08.864Z,40.60
2018-04-14T14:58:37.125Z,42.60
2018-04-14T15:01:05.401Z,43.00
2018-04-14T15:03:33.649Z,39.00
2018-04-14T15:06:01.959Z,41.90
2018-04-14T15:08:30.982Z,42.60
2018-04-14T15:10:59.282Z,42.60
2018-04-14T15:13:27.569Z,41.80
2018-04-14T15:15:55.860Z,41.60
2018-04-14T15:18:24.147Z,40.40
2018-04-14T15:20:52.462Z,40.10
2018-04-14T15:23:20.768Z,42.70
2018-04-14T15:25:49.049Z,38.70
2018-04-14T15:28:17.308Z,39.80
2018-04-14T15:30:45.561Z,39.80
2018-04-14T15:33:14.613Z,41.80
2018-04-14T15:35:42.902Z,41.80
2018-04-14T15:38:11.194Z,39.10
2018-04-14T15:40:39.499Z,40.30
2018-04-14T15:43:07.757Z,41.30
2018-04-14T15:45:37.593Z,42.50
2018-04-14T15:48:05.834Z,42.50
2018-04-14T15:50:34.889Z,40.60
2018-04-14T15:53:03.226Z,40.60
2018-04-14T15:55:32.227Z,41.00
2018-04-14T15:58:00.500Z,40.90
2018-04-14T16:00:28.793Z,40.90
2018-04-14T16:02:57.078Z,42.20
2018-04-14T16:05:25.332Z,42.30
2018-04-14T16:07:53.588Z,39.10
2018-04-14T16:10:21.930Z,42.00
2018-04-14T16:12:50.186Z,42.40
2018-04-14T16:15:18.497Z,38.30
2018-04-14T16:17:46.750Z,40.90
2018-04-14T16:20:15.383Z,42.00
2018-04-14T16:22:43.997Z,39.80
2018-04-14T16:25:12.268Z,42.00
2018-04-14T16:27:40.559Z,39.40
2018-04-14T16:30:08.808Z,40.00
2018-04-14T16:32:37.843Z,40.30
2018-04-14T16:35:06.088Z,40.40
2018-04-14T16:37:35.144Z,42.00
2018-04-14T16:40:03.387Z,42.00
2018-04-14T16:42:31.702Z,42.60
2018-04-14T16:44:59.910Z,42.50
2018-04-14T16:47:28.956Z,41.10
2018-04-14T16:49:57.203Z,41.10
2018-04-14T16:52:25.516Z,39.50
2018-04-14T16:54:53.759Z,38.50
2018-04-14T16:57:22.080Z,41.10
2018-04-14T16:59:50.361Z,41.60
2018-04-14T17:02:18.637Z,38.70
2018-04-14T17:04:46.934Z,38.80
2018-04-14T17:07:15.208Z,39.20
2018-04-14T17:09:43.509Z,40.00
2018-04-14T17:12:12.517Z,40.50
2018-04-14T17:14:40.790Z,40.50
2018-04-14T17:17:09.083Z,40.30
2018-04-14T17:19:37.332Z,39.60
2018-04-14T17:22:05.635Z,39.10
2018-04-14T17:24:33.897Z,39.00
2018-04-14T17:27:02.196Z,40.10
2018-04-14T17:29:30.502Z,40.60
2018-04-14T17:31:58.829Z,38.80
2018-04-14T17:34:27.092Z,39.80
2018-04-14T17:36:56.154Z,40.60
2018-04-14T17:39:24.428Z,40.50
2018-04-14T17:41:52.734Z,40.60
2018-04-14T17:44:21.010Z,41.10
2018-04-14T17:46:49.237Z,40.90
2018-04-14T17:49:17.487Z,40.90
2018-04-14T17:51:45.760Z,41.20
2018-04-14T17:54:14.798Z,41.90
2018-04-14T17:56:43.091Z,41.90
2018-04-14T17:59:11.342Z,42.30
2018-04-14T18:01:39.593Z,42.30
2018-04-14T18:04:07.870Z,42.30
2018-04-14T18:06:36.175Z,42.70
2018-04-14T18:09:04.475Z,42.90
2018-04-14T18:11:32.732Z,43.00
2018-04-14T18:14:01.015Z,43.30
2018-04-14T18:16:29.266Z,43.50
2018-04-14T18:18:57.577Z,43.80
2018-04-14T18:21:25.850Z,43.80
2018-04-14T18:23:54.138Z,43.90
2018-04-14T18:26:22.418Z,44.90
2018-04-14T18:28:50.746Z,44.60
2018-04-14T18:31:19.007Z,44.70
2018-04-14T18:33:47.999Z,45.40
2018-04-14T18:36:17.065Z,45.80
2018-04-14T18:38:46.823Z,46.40
2018-04-14T18:41:15.121Z,46.30
2018-04-14T18:43:43.355Z,46.70
2018-04-14T18:46:12.417Z,46.90
2018-04-14T18:48:40.782Z,46.90
2018-04-14T18:51:09.031Z,47.80
2018-04-14T18:53:37.284Z,47.60
2018-04-14T18:56:06.434Z,46.80
2018-04-14T18:58:34.723Z,46.80
2018-04-14T19:01:03.024Z,47.30
2018-04-14T19:03:31.346Z,47.20
2018-04-14T19:05:59.674Z,47.70
2018-04-14T19:08:29.477Z,47.80
2018-04-14T19:10:57.836Z,47.70
2018-04-14T19:13:26.131Z,48.20
2018-04-14T19:15:55.895Z,47.60
2018-04-14T19:18:24.211Z,47.60
2018-04-14T19:20:52.447Z,48.30
2018-04-14T19:23:20.751Z,48.50
2018-04-14T19:25:48.987Z,47.90
2018-04-14T19:28:18.059Z,47.80
2018-04-14T19:30:46.343Z,47.70
2018-04-14T19:33:14.659Z,47.70
2018-04-14T19:35:42.968Z,48.20
2018-04-14T19:38:11.376Z,47.20
2018-04-14T19:40:41.169Z,47.10
2018-04-14T19:43:09.468Z,47.00
2018-04-14T19:45:37.794Z,47.90
2018-04-14T19:48:06.056Z,46.90
2018-04-14T19:50:35.207Z,48.40
2018-04-14T19:53:03.493Z,49.50
2018-04-14T19:55:31.805Z,48.50
2018-04-14T19:58:00.094Z,48.00
2018-04-14T20:00:28.377Z,47.80
2018-04-14T20:02:56.672Z,49.30
2018-04-14T20:05:25.012Z,48.60
2018-04-14T20:07:54.084Z,48.70
2018-04-14T20:10:22.385Z,48.70
2018-04-14T20:12:51.423Z,48.40
2018-04-14T20:15:19.667Z,48.40
2018-04-14T20:17:47.999Z,48.60
2018-04-14T20:20:16.306Z,49.40
2018-04-14T20:22:45.381Z,48.30
2018-04-14T20:25:14.497Z,48.20
2018-04-14T20:27:42.805Z,48.20
2018-04-14T20:30:11.088Z,48.30
2018-04-14T20:32:39.480Z,48.70
2018-04-14T20:35:07.747Z,48.50
2018-04-14T20:37:36.027Z,49.40
2018-04-14T20:40:04.361Z,48.40
2018-04-14T20:42:33.440Z,50.50
2018-04-14T20:45:03.284Z,48.80
2018-04-14T20:47:32.363Z,49.20
2018-04-14T20:50:01.460Z,48.90
2018-04-14T20:52:30.528Z,49.80
2018-04-14T20:54:58.854Z,49.10
2018-04-14T20:57:27.874Z,48.60
2018-04-14T20:59:56.155Z,48.50
2018-04-14T21:02:24.476Z,48.70
2018-04-14T21:04:52.762Z,48.40
2018-04-14T21:07:21.829Z,51.40
2018-04-14T21:09:50.145Z,51.20
2018-04-14T21:12:19.171Z,51.80
2018-04-14T21:14:47.461Z,51.70
2018-04-14T21:17:15.725Z,51.70
2018-04-14T21:19:43.982Z,50.50
2018-04-14T21:22:13.021Z,52.30
2018-04-14T21:24:41.310Z,52.20
2018-04-14T21:27:09.576Z,52.10
2018-04-14T21:29:37.834Z,52.60
2018-04-14T21:32:06.129Z,52.80
2018-04-14T21:34:34.393Z,52.30
2018-04-14T21:37:02.701Z,51.40
2018-04-14T21:39:30.990Z,52.20
2018-04-14T21:41:59.270Z,53.30
2018-04-14T21:44:28.274Z,50.90
2018-04-14T21:46:57.383Z,52.90
2018-04-14T21:49:26.437Z,52.20
2018-04-14T21:51:54.718Z,52.10
2018-04-14T21:54:22.973Z,52.20
2018-04-14T21:56:51.214Z,52.80
2018-04-14T21:59:19.522Z,52.10
2018-04-14T22:01:47.762Z,51.50
2018-04-14T22:04:16.029Z,52.60
2018-04-14T22:06:45.052Z,54.80
2018-04-14T22:09:13.349Z,54.80
2018-04-14T22:11:41.595Z,53.70
2018-04-14T22:14:09.859Z,52.10
2018-04-14T22:16:38.117Z,51.30
2018-04-14T22:19:06.412Z,50.90
2018-04-14T22:21:35.414Z,52.90
2018-04-14T22:24:03.766Z,52.90
2018-04-14T22:26:32.009Z,53.80
2018-04-14T22:29:00.310Z,52.30
2018-04-14T22:31:28.583Z,51.50
2018-04-14T22:33:56.803Z,54.30
2018-04-14T22:36:25.112Z,52.20
2018-04-14T22:38:53.393Z,52.80
2018-04-14T22:41:21.693Z,54.90
2018-04-14T22:43:49.970Z,56.20
2018-04-14T22:46:18.225Z,54.60
2018-04-14T22:48:46.465Z,54.80
2018-04-14T22:51:14.762Z,55.40
2018-04-14T22:53:43.055Z,56.00
2018-04-14T22:56:11.359Z,54.40
2018-04-14T22:58:39.591Z,55.40
2018-04-14T23:01:07.873Z,54.40
2018-04-14T23:03:36.167Z,53.50
2018-04-14T23:06:04.436Z,53.20
2018-04-14T23:08:32.744Z,53.20
2018-04-14T23:11:02.534Z,54.50
2018-04-14T23:13:30.823Z,54.50
2018-04-14T23:15:59.048Z,54.50
2018-04-14T23:18:27.300Z,53.70
2018-04-14T23:20:56.356Z,53.90
2018-04-14T23:23:24.605Z,53.90
2018-04-14T23:25:52.852Z,53.50
2018-04-14T23:28:21.898Z,54.00
2018-04-14T23:30:50.179Z,53.90
2018-04-14T23:33:18.489Z,52.50
2018-04-14T23:35:46.732Z,52.50
2018-04-14T23:38:15.003Z,51.90
2018-04-14T23:40:43.295Z,54.00
2018-04-14T23:43:11.536Z,54.40
2018-04-14T23:45:39.834Z,54.80
2018-04-14T23:48:08.076Z,54.70
2018-04-14T23:50:36.384Z,54.40
2018-04-14T23:53:04.662Z,55.30
2018-04-14T23:55:32.932Z,55.70
2018-04-14T23:58:01.165Z,57.60
